sensor_id;sensor_type;location;lat;lon;timestamp;P1;durP1;ratioP1;P2;durP2;ratioP2
30287;SDS011;17103;48.316;11.558;2023-05-07T00:01:58;2.75;;;2.10;;
30287;SDS011;17103;48.316;11.558;2023-05-07T00:04:23;2.63;;;2.17;;
30287;SDS011;17103;48.316;11.558;2023-05-07T00:06:49;2.65;;;1.40;;
30287;SDS011;17103;48.316;11.558;2023-05-07T00:09:16;2.58;;;1.80;;
30287;SDS011;17103;48.316;11.558;2023-05-07T00:11:41;4.65;;;1.75;;
30287;SDS011;17103;48.316;11.558;2023-05-07T00:14:07;2.20;;;1.45;;
30287;SDS011;17103;48.316;11.558;2023-05-07T00:16:33;3.13;;;1.52;;
30287;SDS011;17103;48.316;11.558;2023-05-07T00:18:58;2.72;;;1.90;;
30287;SDS011;17103;48.316;11.558;2023-05-07T00:21:25;2.25;;;1.90;;
30287;SDS011;17103;48.316;11.558;2023-05-07T00:23:52;2.67;;;1.95;;
30287;SDS011;17103;48.316;11.558;2023-05-07T00:26:18;1.60;;;1.50;;
30287;SDS011;17103;48.316;11.558;2023-05-07T00:28:44;2.40;;;1.48;;
30287;SDS011;17103;48.316;11.558;2023-05-07T00:31:10;3.20;;;1.90;;
30287;SDS011;17103;48.316;11.558;2023-05-07T00:33:37;3.65;;;1.55;;
30287;SDS011;17103;48.316;11.558;2023-05-07T00:36:04;4.32;;;1.38;;
30287;SDS011;17103;48.316;11.558;2023-05-07T00:38:30;1.50;;;1.40;;
30287;SDS011;17103;48.316;11.558;2023-05-07T00:40:55;2.72;;;1.45;;
30287;SDS011;17103;48.316;11.558;2023-05-07T00:43:22;1.60;;;1.50;;
30287;SDS011;17103;48.316;11.558;2023-05-07T00:45:48;3.10;;;1.35;;
30287;SDS011;17103;48.316;11.558;2023-05-07T00:48:15;2.10;;;1.60;;
30287;SDS011;17103;48.316;11.558;2023-05-07T00:50:41;2.35;;;1.60;;
30287;SDS011;17103;48.316;11.558;2023-05-07T00:53:07;1.80;;;1.60;;
30287;SDS011;17103;48.316;11.558;2023-05-07T00:55:33;1.90;;;1.30;;
30287;SDS011;17103;48.316;11.558;2023-05-07T00:58:01;1.70;;;1.52;;
30287;SDS011;17103;48.316;11.558;2023-05-07T01:00:26;1.85;;;1.50;;
30287;SDS011;17103;48.316;11.558;2023-05-07T01:02:53;1.70;;;1.50;;
30287;SDS011;17103;48.316;11.558;2023-05-07T01:05:19;2.38;;;1.98;;
30287;SDS011;17103;48.316;11.558;2023-05-07T01:07:47;2.05;;;1.50;;
30287;SDS011;17103;48.316;11.558;2023-05-07T01:10:13;2.00;;;1.80;;
30287;SDS011;17103;48.316;11.558;2023-05-07T01:12:40;2.47;;;1.52;;
30287;SDS011;17103;48.316;11.558;2023-05-07T01:15:07;1.92;;;1.55;;
30287;SDS011;17103;48.316;11.558;2023-05-07T01:17:38;2.95;;;1.77;;
30287;SDS011;17103;48.316;11.558;2023-05-07T01:20:06;1.42;;;1.30;;
30287;SDS011;17103;48.316;11.558;2023-05-07T01:22:38;2.15;;;1.88;;
30287;SDS011;17103;48.316;11.558;2023-05-07T01:25:06;3.35;;;2.13;;
30287;SDS011;17103;48.316;11.558;2023-05-07T01:27:33;1.70;;;1.60;;
30287;SDS011;17103;48.316;11.558;2023-05-07T01:30:00;1.70;;;1.40;;
30287;SDS011;17103;48.316;11.558;2023-05-07T01:32:27;2.38;;;1.90;;
30287;SDS011;17103;48.316;11.558;2023-05-07T01:34:58;2.25;;;1.67;;
30287;SDS011;17103;48.316;11.558;2023-05-07T01:37:26;1.95;;;1.52;;
30287;SDS011;17103;48.316;11.558;2023-05-07T01:39:54;2.10;;;1.90;;
30287;SDS011;17103;48.316;11.558;2023-05-07T01:42:20;3.63;;;1.92;;
30287;SDS011;17103;48.316;11.558;2023-05-07T01:44:47;2.42;;;1.98;;
30287;SDS011;17103;48.316;11.558;2023-05-07T01:47:13;1.77;;;1.55;;
30287;SDS011;17103;48.316;11.558;2023-05-07T01:49:39;2.10;;;1.90;;
30287;SDS011;17103;48.316;11.558;2023-05-07T01:52:06;1.92;;;1.75;;
30287;SDS011;17103;48.316;11.558;2023-05-07T01:54:32;3.03;;;2.25;;
30287;SDS011;17103;48.316;11.558;2023-05-07T01:56:58;2.10;;;1.90;;
30287;SDS011;17103;48.316;11.558;2023-05-07T01:59:25;2.15;;;1.88;;
30287;SDS011;17103;48.316;11.558;2023-05-07T02:01:51;2.88;;;1.83;;
30287;SDS011;17103;48.316;11.558;2023-05-07T02:04:17;3.63;;;2.38;;
30287;SDS011;17103;48.316;11.558;2023-05-07T02:06:42;4.10;;;2.20;;
30287;SDS011;17103;48.316;11.558;2023-05-07T02:09:08;2.28;;;2.08;;
30287;SDS011;17103;48.316;11.558;2023-05-07T02:11:34;4.50;;;2.30;;
30287;SDS011;17103;48.316;11.558;2023-05-07T02:14:00;2.53;;;2.00;;
30287;SDS011;17103;48.316;11.558;2023-05-07T02:16:26;2.75;;;2.20;;
30287;SDS011;17103;48.316;11.558;2023-05-07T02:18:51;2.83;;;2.28;;
30287;SDS011;17103;48.316;11.558;2023-05-07T02:21:17;3.53;;;2.40;;
30287;SDS011;17103;48.316;11.558;2023-05-07T02:23:42;2.55;;;2.35;;
30287;SDS011;17103;48.316;11.558;2023-05-07T02:26:08;3.83;;;2.47;;
30287;SDS011;17103;48.316;11.558;2023-05-07T02:28:34;2.55;;;2.30;;
30287;SDS011;17103;48.316;11.558;2023-05-07T02:31:02;2.72;;;2.17;;
30287;SDS011;17103;48.316;11.558;2023-05-07T02:33:28;2.97;;;2.25;;
30287;SDS011;17103;48.316;11.558;2023-05-07T02:35:53;3.53;;;2.10;;
30287;SDS011;17103;48.316;11.558;2023-05-07T02:38:19;3.95;;;2.40;;
30287;SDS011;17103;48.316;11.558;2023-05-07T02:40:45;2.85;;;2.42;;
30287;SDS011;17103;48.316;11.558;2023-05-07T02:43:10;3.40;;;2.97;;
30287;SDS011;17103;48.316;11.558;2023-05-07T02:45:36;2.75;;;2.10;;
30287;SDS011;17103;48.316;11.558;2023-05-07T02:48:03;3.13;;;2.22;;
30287;SDS011;17103;48.316;11.558;2023-05-07T02:50:31;4.32;;;2.50;;
30287;SDS011;17103;48.316;11.558;2023-05-07T02:52:57;2.92;;;2.63;;
30287;SDS011;17103;48.316;11.558;2023-05-07T02:55:24;4.15;;;2.50;;
30287;SDS011;17103;48.316;11.558;2023-05-07T02:57:50;4.55;;;2.65;;
30287;SDS011;17103;48.316;11.558;2023-05-07T03:00:17;3.03;;;2.10;;
30287;SDS011;17103;48.316;11.558;2023-05-07T03:02:44;3.85;;;2.60;;
30287;SDS011;17103;48.316;11.558;2023-05-07T03:05:12;3.38;;;2.88;;
30287;SDS011;17103;48.316;11.558;2023-05-07T03:07:39;2.92;;;2.72;;
30287;SDS011;17103;48.316;11.558;2023-05-07T03:10:06;5.32;;;2.58;;
30287;SDS011;17103;48.316;11.558;2023-05-07T03:12:32;3.17;;;2.83;;
30287;SDS011;17103;48.316;11.558;2023-05-07T03:14:59;3.13;;;2.53;;
30287;SDS011;17103;48.316;11.558;2023-05-07T03:17:26;5.03;;;2.47;;
30287;SDS011;17103;48.316;11.558;2023-05-07T03:19:52;6.78;;;2.33;;
30287;SDS011;17103;48.316;11.558;2023-05-07T03:22:18;6.80;;;2.42;;
30287;SDS011;17103;48.316;11.558;2023-05-07T03:24:44;3.17;;;2.50;;
30287;SDS011;17103;48.316;11.558;2023-05-07T03:27:09;3.42;;;2.78;;
30287;SDS011;17103;48.316;11.558;2023-05-07T03:29:35;3.92;;;2.45;;
30287;SDS011;17103;48.316;11.558;2023-05-07T03:32:00;2.88;;;2.60;;
30287;SDS011;17103;48.316;11.558;2023-05-07T03:34:26;3.50;;;2.60;;
30287;SDS011;17103;48.316;11.558;2023-05-07T03:36:52;2.90;;;2.40;;
30287;SDS011;17103;48.316;11.558;2023-05-07T03:39:17;2.78;;;2.03;;
30287;SDS011;17103;48.316;11.558;2023-05-07T03:41:43;2.40;;;2.00;;
30287;SDS011;17103;48.316;11.558;2023-05-07T03:44:09;5.68;;;2.38;;
30287;SDS011;17103;48.316;11.558;2023-05-07T03:46:34;2.88;;;2.35;;
30287;SDS011;17103;48.316;11.558;2023-05-07T03:49:00;2.55;;;2.30;;
30287;SDS011;17103;48.316;11.558;2023-05-07T03:51:26;3.20;;;2.10;;
30287;SDS011;17103;48.316;11.558;2023-05-07T03:53:52;2.05;;;1.85;;
30287;SDS011;17103;48.316;11.558;2023-05-07T03:56:19;2.88;;;2.38;;
30287;SDS011;17103;48.316;11.558;2023-05-07T03:58:44;4.18;;;2.17;;
30287;SDS011;17103;48.316;11.558;2023-05-07T04:01:10;3.30;;;2.42;;
30287;SDS011;17103;48.316;11.558;2023-05-07T04:03:36;4.40;;;2.10;;
30287;SDS011;17103;48.316;11.558;2023-05-07T04:06:02;3.85;;;2.10;;
30287;SDS011;17103;48.316;11.558;2023-05-07T04:08:28;5.53;;;2.30;;
30287;SDS011;17103;48.316;11.558;2023-05-07T04:10:56;3.78;;;2.30;;
30287;SDS011;17103;48.316;11.558;2023-05-07T04:13:23;2.70;;;2.33;;
30287;SDS011;17103;48.316;11.558;2023-05-07T04:15:50;2.60;;;2.40;;
30287;SDS011;17103;48.316;11.558;2023-05-07T04:18:17;3.40;;;1.95;;
30287;SDS011;17103;48.316;11.558;2023-05-07T04:20:43;2.83;;;2.15;;
30287;SDS011;17103;48.316;11.558;2023-05-07T04:23:08;4.20;;;1.67;;
30287;SDS011;17103;48.316;11.558;2023-05-07T04:25:34;2.03;;;1.40;;
30287;SDS011;17103;48.316;11.558;2023-05-07T04:28:00;3.28;;;1.65;;
30287;SDS011;17103;48.316;11.558;2023-05-07T04:30:25;5.75;;;2.60;;
30287;SDS011;17103;48.316;11.558;2023-05-07T04:32:51;5.75;;;2.03;;
30287;SDS011;17103;48.316;11.558;2023-05-07T04:35:17;2.35;;;1.75;;
30287;SDS011;17103;48.316;11.558;2023-05-07T04:37:43;2.08;;;1.95;;
30287;SDS011;17103;48.316;11.558;2023-05-07T04:40:09;3.83;;;2.03;;
30287;SDS011;17103;48.316;11.558;2023-05-07T04:42:35;2.20;;;1.98;;
30287;SDS011;17103;48.316;11.558;2023-05-07T04:45:01;2.75;;;2.22;;
30287;SDS011;17103;48.316;11.558;2023-05-07T04:47:27;2.53;;;2.08;;
30287;SDS011;17103;48.316;11.558;2023-05-07T04:49:53;2.33;;;2.13;;
30287;SDS011;17103;48.316;11.558;2023-05-07T04:52:19;3.50;;;2.20;;
30287;SDS011;17103;48.316;11.558;2023-05-07T04:54:46;4.05;;;2.70;;
30287;SDS011;17103;48.316;11.558;2023-05-07T04:57:12;2.95;;;1.88;;
30287;SDS011;17103;48.316;11.558;2023-05-07T04:59:38;3.20;;;2.10;;
30287;SDS011;17103;48.316;11.558;2023-05-07T05:02:04;2.83;;;2.10;;
30287;SDS011;17103;48.316;11.558;2023-05-07T05:04:30;5.10;;;2.10;;
30287;SDS011;17103;48.316;11.558;2023-05-07T05:06:56;3.13;;;2.10;;
30287;SDS011;17103;48.316;11.558;2023-05-07T05:09:21;2.00;;;1.80;;
30287;SDS011;17103;48.316;11.558;2023-05-07T05:11:47;3.50;;;2.13;;
30287;SDS011;17103;48.316;11.558;2023-05-07T05:14:13;4.80;;;2.35;;
30287;SDS011;17103;48.316;11.558;2023-05-07T05:16:38;2.30;;;2.10;;
30287;SDS011;17103;48.316;11.558;2023-05-07T05:19:04;2.55;;;1.98;;
30287;SDS011;17103;48.316;11.558;2023-05-07T05:21:30;2.50;;;2.30;;
30287;SDS011;17103;48.316;11.558;2023-05-07T05:23:56;2.65;;;2.30;;
30287;SDS011;17103;48.316;11.558;2023-05-07T05:26:22;2.55;;;2.20;;
30287;SDS011;17103;48.316;11.558;2023-05-07T05:28:48;2.78;;;2.40;;
30287;SDS011;17103;48.316;11.558;2023-05-07T05:31:13;3.63;;;2.40;;
30287;SDS011;17103;48.316;11.558;2023-05-07T05:33:39;4.57;;;2.30;;
30287;SDS011;17103;48.316;11.558;2023-05-07T05:36:05;2.83;;;2.20;;
30287;SDS011;17103;48.316;11.558;2023-05-07T05:38:31;4.82;;;2.45;;
30287;SDS011;17103;48.316;11.558;2023-05-07T05:40:57;3.50;;;2.50;;
30287;SDS011;17103;48.316;11.558;2023-05-07T05:43:23;2.33;;;2.13;;
30287;SDS011;17103;48.316;11.558;2023-05-07T05:45:48;2.45;;;2.25;;
30287;SDS011;17103;48.316;11.558;2023-05-07T05:48:14;2.55;;;2.35;;
30287;SDS011;17103;48.316;11.558;2023-05-07T05:50:39;2.75;;;2.55;;
30287;SDS011;17103;48.316;11.558;2023-05-07T05:53:07;3.45;;;3.15;;
30287;SDS011;17103;48.316;11.558;2023-05-07T05:55:32;5.00;;;2.33;;
30287;SDS011;17103;48.316;11.558;2023-05-07T05:57:59;3.40;;;2.28;;
30287;SDS011;17103;48.316;11.558;2023-05-07T06:00:25;2.55;;;2.35;;
30287;SDS011;17103;48.316;11.558;2023-05-07T06:02:51;3.00;;;2.47;;
30287;SDS011;17103;48.316;11.558;2023-05-07T06:05:17;3.03;;;2.72;;
30287;SDS011;17103;48.316;11.558;2023-05-07T06:07:43;9.63;;;3.67;;
30287;SDS011;17103;48.316;11.558;2023-05-07T06:10:09;5.88;;;2.80;;
30287;SDS011;17103;48.316;11.558;2023-05-07T06:12:35;3.33;;;2.90;;
30287;SDS011;17103;48.316;11.558;2023-05-07T06:15:01;3.45;;;3.15;;
30287;SDS011;17103;48.316;11.558;2023-05-07T06:17:26;3.53;;;3.20;;
30287;SDS011;17103;48.316;11.558;2023-05-07T06:19:52;3.55;;;3.25;;
30287;SDS011;17103;48.316;11.558;2023-05-07T06:22:18;7.97;;;3.47;;
30287;SDS011;17103;48.316;11.558;2023-05-07T06:24:44;5.60;;;3.85;;
30287;SDS011;17103;48.316;11.558;2023-05-07T06:27:10;3.65;;;3.20;;
30287;SDS011;17103;48.316;11.558;2023-05-07T06:29:36;4.60;;;3.45;;
30287;SDS011;17103;48.316;11.558;2023-05-07T06:32:06;3.83;;;3.42;;
30287;SDS011;17103;48.316;11.558;2023-05-07T06:34:36;6.20;;;3.83;;
30287;SDS011;17103;48.316;11.558;2023-05-07T06:37:03;4.20;;;3.80;;
30287;SDS011;17103;48.316;11.558;2023-05-07T06:39:29;4.57;;;3.60;;
30287;SDS011;17103;48.316;11.558;2023-05-07T06:41:55;4.70;;;4.15;;
30287;SDS011;17103;48.316;11.558;2023-05-07T06:44:22;5.35;;;4.60;;
30287;SDS011;17103;48.316;11.558;2023-05-07T06:46:48;5.55;;;4.13;;
30287;SDS011;17103;48.316;11.558;2023-05-07T06:49:14;4.45;;;4.05;;
30287;SDS011;17103;48.316;11.558;2023-05-07T06:51:40;5.60;;;4.47;;
30287;SDS011;17103;48.316;11.558;2023-05-07T06:54:06;5.25;;;3.75;;
30287;SDS011;17103;48.316;11.558;2023-05-07T06:56:32;6.15;;;3.70;;
30287;SDS011;17103;48.316;11.558;2023-05-07T06:59:00;4.68;;;4.22;;
30287;SDS011;17103;48.316;11.558;2023-05-07T07:01:28;4.07;;;3.65;;
30287;SDS011;17103;48.316;11.558;2023-05-07T07:03:54;6.05;;;4.55;;
30287;SDS011;17103;48.316;11.558;2023-05-07T07:06:19;4.68;;;4.22;;
30287;SDS011;17103;48.316;11.558;2023-05-07T07:08:45;4.38;;;3.92;;
30287;SDS011;17103;48.316;11.558;2023-05-07T07:11:11;4.68;;;3.75;;
30287;SDS011;17103;48.316;11.558;2023-05-07T07:13:37;4.10;;;3.70;;
30287;SDS011;17103;48.316;11.558;2023-05-07T07:16:03;3.97;;;3.58;;
30287;SDS011;17103;48.316;11.558;2023-05-07T07:18:28;7.28;;;4.30;;
30287;SDS011;17103;48.316;11.558;2023-05-07T07:20:54;5.05;;;4.32;;
30287;SDS011;17103;48.316;11.558;2023-05-07T07:23:20;4.68;;;4.28;;
30287;SDS011;17103;48.316;11.558;2023-05-07T07:25:46;7.43;;;3.92;;
30287;SDS011;17103;48.316;11.558;2023-05-07T07:28:11;5.47;;;4.88;;
30287;SDS011;17103;48.316;11.558;2023-05-07T07:30:38;5.28;;;4.47;;
30287;SDS011;17103;48.316;11.558;2023-05-07T07:33:04;6.53;;;4.82;;
30287;SDS011;17103;48.316;11.558;2023-05-07T07:35:30;4.40;;;4.00;;
30287;SDS011;17103;48.316;11.558;2023-05-07T07:38:00;5.32;;;3.97;;
30287;SDS011;17103;48.316;11.558;2023-05-07T07:40:26;4.45;;;3.55;;
30287;SDS011;17103;48.316;11.558;2023-05-07T07:42:52;4.82;;;3.80;;
30287;SDS011;17103;48.316;11.558;2023-05-07T07:45:19;5.03;;;4.60;;
30287;SDS011;17103;48.316;11.558;2023-05-07T07:47:45;4.93;;;4.43;;
30287;SDS011;17103;48.316;11.558;2023-05-07T07:50:11;4.75;;;4.22;;
30287;SDS011;17103;48.316;11.558;2023-05-07T07:52:37;5.68;;;4.18;;
30287;SDS011;17103;48.316;11.558;2023-05-07T07:55:03;4.60;;;4.03;;
30287;SDS011;17103;48.316;11.558;2023-05-07T07:57:29;4.95;;;4.15;;
30287;SDS011;17103;48.316;11.558;2023-05-07T07:59:55;4.47;;;4.07;;
30287;SDS011;17103;48.316;11.558;2023-05-07T08:02:21;6.00;;;4.50;;
30287;SDS011;17103;48.316;11.558;2023-05-07T08:04:47;5.53;;;4.43;;
30287;SDS011;17103;48.316;11.558;2023-05-07T08:07:12;4.00;;;3.70;;
30287;SDS011;17103;48.316;11.558;2023-05-07T08:09:38;6.55;;;5.18;;
30287;SDS011;17103;48.316;11.558;2023-05-07T08:12:05;6.20;;;4.72;;
30287;SDS011;17103;48.316;11.558;2023-05-07T08:14:32;4.80;;;4.22;;
30287;SDS011;17103;48.316;11.558;2023-05-07T08:16:59;5.25;;;4.75;;
30287;SDS011;17103;48.316;11.558;2023-05-07T08:19:25;4.88;;;3.90;;
30287;SDS011;17103;48.316;11.558;2023-05-07T08:21:51;4.63;;;4.00;;
30287;SDS011;17103;48.316;11.558;2023-05-07T08:24:18;4.85;;;4.10;;
30287;SDS011;17103;48.316;11.558;2023-05-07T08:26:45;4.63;;;4.22;;
30287;SDS011;17103;48.316;11.558;2023-05-07T08:29:11;4.25;;;3.90;;
30287;SDS011;17103;48.316;11.558;2023-05-07T08:31:37;5.53;;;5.03;;
30287;SDS011;17103;48.316;11.558;2023-05-07T08:34:06;5.53;;;4.78;;
30287;SDS011;17103;48.316;11.558;2023-05-07T08:36:31;4.22;;;3.83;;
30287;SDS011;17103;48.316;11.558;2023-05-07T08:38:57;7.60;;;4.93;;
30287;SDS011;17103;48.316;11.558;2023-05-07T08:41:24;5.70;;;4.22;;
30287;SDS011;17103;48.316;11.558;2023-05-07T08:43:50;3.55;;;3.17;;
30287;SDS011;17103;48.316;11.558;2023-05-07T08:46:17;5.78;;;5.28;;
30287;SDS011;17103;48.316;11.558;2023-05-07T08:48:50;5.50;;;4.65;;
30287;SDS011;17103;48.316;11.558;2023-05-07T08:51:17;5.35;;;4.28;;
30287;SDS011;17103;48.316;11.558;2023-05-07T08:53:46;6.38;;;4.15;;
30287;SDS011;17103;48.316;11.558;2023-05-07T08:56:15;5.30;;;4.75;;
30287;SDS011;17103;48.316;11.558;2023-05-07T08:58:42;4.53;;;4.00;;
30287;SDS011;17103;48.316;11.558;2023-05-07T09:01:09;5.22;;;4.28;;
30287;SDS011;17103;48.316;11.558;2023-05-07T09:03:38;5.47;;;4.57;;
30287;SDS011;17103;48.316;11.558;2023-05-07T09:06:05;6.50;;;4.55;;
30287;SDS011;17103;48.316;11.558;2023-05-07T09:08:32;5.55;;;3.67;;
30287;SDS011;17103;48.316;11.558;2023-05-07T09:10:59;5.53;;;4.15;;
30287;SDS011;17103;48.316;11.558;2023-05-07T09:13:25;4.70;;;3.65;;
30287;SDS011;17103;48.316;11.558;2023-05-07T09:15:52;4.15;;;3.50;;
30287;SDS011;17103;48.316;11.558;2023-05-07T09:18:18;3.78;;;3.38;;
30287;SDS011;17103;48.316;11.558;2023-05-07T09:20:43;3.20;;;2.90;;
30287;SDS011;17103;48.316;11.558;2023-05-07T09:23:09;3.28;;;2.33;;
30287;SDS011;17103;48.316;11.558;2023-05-07T09:25:35;6.88;;;3.55;;
30287;SDS011;17103;48.316;11.558;2023-05-07T09:28:02;5.25;;;3.42;;
30287;SDS011;17103;48.316;11.558;2023-05-07T09:30:29;4.72;;;4.25;;
30287;SDS011;17103;48.316;11.558;2023-05-07T09:33:00;4.78;;;3.88;;
30287;SDS011;17103;48.316;11.558;2023-05-07T09:35:27;2.92;;;2.63;;
30287;SDS011;17103;48.316;11.558;2023-05-07T09:37:53;3.63;;;3.28;;
30287;SDS011;17103;48.316;11.558;2023-05-07T09:40:21;4.47;;;2.65;;
30287;SDS011;17103;48.316;11.558;2023-05-07T09:42:51;5.53;;;2.53;;
30287;SDS011;17103;48.316;11.558;2023-05-07T09:45:29;4.38;;;1.98;;
30287;SDS011;17103;48.316;11.558;2023-05-07T09:47:55;3.33;;;2.08;;
30287;SDS011;17103;48.316;11.558;2023-05-07T09:50:25;2.65;;;2.25;;
30287;SDS011;17103;48.316;11.558;2023-05-07T09:52:53;3.35;;;1.90;;
30287;SDS011;17103;48.316;11.558;2023-05-07T09:55:20;2.45;;;1.70;;
30287;SDS011;17103;48.316;11.558;2023-05-07T09:57:46;2.30;;;1.45;;
30287;SDS011;17103;48.316;11.558;2023-05-07T10:00:17;2.33;;;1.42;;
30287;SDS011;17103;48.316;11.558;2023-05-07T10:02:45;2.58;;;0.90;;
30287;SDS011;17103;48.316;11.558;2023-05-07T10:05:18;2.53;;;1.50;;
30287;SDS011;17103;48.316;11.558;2023-05-07T10:07:46;1.85;;;1.20;;
30287;SDS011;17103;48.316;11.558;2023-05-07T10:10:12;1.88;;;1.40;;
30287;SDS011;17103;48.316;11.558;2023-05-07T10:12:40;0.88;;;0.80;;
30287;SDS011;17103;48.316;11.558;2023-05-07T10:15:07;1.42;;;1.30;;
30287;SDS011;17103;48.316;11.558;2023-05-07T10:17:36;2.22;;;1.00;;
30287;SDS011;17103;48.316;11.558;2023-05-07T10:20:03;2.00;;;1.33;;
30287;SDS011;17103;48.316;11.558;2023-05-07T10:22:32;1.08;;;0.90;;
30287;SDS011;17103;48.316;11.558;2023-05-07T10:25:14;1.63;;;1.10;;
30287;SDS011;17103;48.316;11.558;2023-05-07T10:27:53;1.42;;;1.33;;
30287;SDS011;17103;48.316;11.558;2023-05-07T10:33:10;1.23;;;0.75;;
30287;SDS011;17103;48.316;11.558;2023-05-07T10:35:45;4.05;;;1.10;;
30287;SDS011;17103;48.316;11.558;2023-05-07T10:38:13;1.92;;;0.70;;
30287;SDS011;17103;48.316;11.558;2023-05-07T10:40:50;4.15;;;1.15;;
30287;SDS011;17103;48.316;11.558;2023-05-07T10:43:26;8.45;;;1.00;;
30287;SDS011;17103;48.316;11.558;2023-05-07T10:46:15;1.00;;;0.55;;
30287;SDS011;17103;48.316;11.558;2023-05-07T10:51:26;3.00;;;1.35;;
30287;SDS011;17103;48.316;11.558;2023-05-07T10:56:37;1.20;;;0.90;;
30287;SDS011;17103;48.316;11.558;2023-05-07T11:02:08;4.05;;;1.02;;
30287;SDS011;17103;48.316;11.558;2023-05-07T11:04:36;1.67;;;0.80;;
30287;SDS011;17103;48.316;11.558;2023-05-07T11:10:08;3.42;;;0.80;;
30287;SDS011;17103;48.316;11.558;2023-05-07T11:15:03;1.65;;;1.08;;
30287;SDS011;17103;48.316;11.558;2023-05-07T11:17:29;1.20;;;0.98;;
30287;SDS011;17103;48.316;11.558;2023-05-07T11:19:57;1.20;;;0.85;;
30287;SDS011;17103;48.316;11.558;2023-05-07T11:25:01;1.50;;;0.90;;
30287;SDS011;17103;48.316;11.558;2023-05-07T11:27:28;1.55;;;1.20;;
30287;SDS011;17103;48.316;11.558;2023-05-07T11:29:54;2.75;;;1.77;;
30287;SDS011;17103;48.316;11.558;2023-05-07T11:32:23;1.48;;;0.80;;
30287;SDS011;17103;48.316;11.558;2023-05-07T11:35:00;1.20;;;0.75;;
30287;SDS011;17103;48.316;11.558;2023-05-07T11:37:26;1.90;;;0.60;;
30287;SDS011;17103;48.316;11.558;2023-05-07T11:40:04;1.10;;;1.00;;
30287;SDS011;17103;48.316;11.558;2023-05-07T11:42:35;1.42;;;1.20;;
30287;SDS011;17103;48.316;11.558;2023-05-07T11:45:05;2.58;;;0.82;;
30287;SDS011;17103;48.316;11.558;2023-05-07T11:47:33;1.77;;;1.23;;
30287;SDS011;17103;48.316;11.558;2023-05-07T11:50:06;1.70;;;0.88;;
30287;SDS011;17103;48.316;11.558;2023-05-07T11:52:33;1.10;;;0.90;;
30287;SDS011;17103;48.316;11.558;2023-05-07T11:54:59;1.55;;;0.95;;
30287;SDS011;17103;48.316;11.558;2023-05-07T11:57:26;0.88;;;0.85;;
30287;SDS011;17103;48.316;11.558;2023-05-07T11:59:54;1.50;;;0.85;;
30287;SDS011;17103;48.316;11.558;2023-05-07T12:02:23;1.33;;;1.10;;
30287;SDS011;17103;48.316;11.558;2023-05-07T12:04:53;1.00;;;0.75;;
30287;SDS011;17103;48.316;11.558;2023-05-07T12:07:21;1.30;;;0.80;;
30287;SDS011;17103;48.316;11.558;2023-05-07T12:09:49;2.05;;;0.95;;
30287;SDS011;17103;48.316;11.558;2023-05-07T12:12:15;1.92;;;1.00;;
30287;SDS011;17103;48.316;11.558;2023-05-07T12:14:43;1.30;;;0.88;;
30287;SDS011;17103;48.316;11.558;2023-05-07T12:17:10;1.23;;;0.80;;
30287;SDS011;17103;48.316;11.558;2023-05-07T12:19:37;1.23;;;0.80;;
30287;SDS011;17103;48.316;11.558;2023-05-07T12:22:05;3.35;;;0.60;;
30287;SDS011;17103;48.316;11.558;2023-05-07T12:24:47;1.92;;;1.00;;
30287;SDS011;17103;48.316;11.558;2023-05-07T12:27:14;1.30;;;0.95;;
30287;SDS011;17103;48.316;11.558;2023-05-07T12:29:47;1.80;;;1.20;;
30287;SDS011;17103;48.316;11.558;2023-05-07T12:32:17;1.88;;;1.33;;
30287;SDS011;17103;48.316;11.558;2023-05-07T12:34:44;1.70;;;1.20;;
30287;SDS011;17103;48.316;11.558;2023-05-07T12:37:11;2.60;;;0.90;;
30287;SDS011;17103;48.316;11.558;2023-05-07T12:39:38;2.17;;;1.27;;
30287;SDS011;17103;48.316;11.558;2023-05-07T12:42:09;1.20;;;1.10;;
30287;SDS011;17103;48.316;11.558;2023-05-07T12:44:51;1.20;;;1.07;;
30287;SDS011;17103;48.316;11.558;2023-05-07T12:47:20;3.58;;;1.10;;
30287;SDS011;17103;48.316;11.558;2023-05-07T12:49:58;1.30;;;1.10;;
30287;SDS011;17103;48.316;11.558;2023-05-07T12:52:28;1.10;;;0.80;;
30287;SDS011;17103;48.316;11.558;2023-05-07T12:54:54;2.28;;;0.90;;
30287;SDS011;17103;48.316;11.558;2023-05-07T12:57:19;1.25;;;0.70;;
30287;SDS011;17103;48.316;11.558;2023-05-07T12:59:45;1.75;;;1.10;;
30287;SDS011;17103;48.316;11.558;2023-05-07T13:02:12;1.52;;;1.00;;
30287;SDS011;17103;48.316;11.558;2023-05-07T13:04:37;1.85;;;0.90;;
30287;SDS011;17103;48.316;11.558;2023-05-07T13:07:03;1.25;;;0.90;;
30287;SDS011;17103;48.316;11.558;2023-05-07T13:09:29;1.83;;;1.15;;
30287;SDS011;17103;48.316;11.558;2023-05-07T13:11:56;1.75;;;0.88;;
30287;SDS011;17103;48.316;11.558;2023-05-07T13:14:25;1.73;;;1.10;;
30287;SDS011;17103;48.316;11.558;2023-05-07T13:16:50;1.92;;;0.77;;
30287;SDS011;17103;48.316;11.558;2023-05-07T13:19:16;2.72;;;1.00;;
30287;SDS011;17103;48.316;11.558;2023-05-07T13:21:42;1.30;;;0.93;;
30287;SDS011;17103;48.316;11.558;2023-05-07T13:24:08;1.00;;;0.88;;
30287;SDS011;17103;48.316;11.558;2023-05-07T13:26:34;1.40;;;1.00;;
30287;SDS011;17103;48.316;11.558;2023-05-07T13:29:00;3.47;;;1.15;;
30287;SDS011;17103;48.316;11.558;2023-05-07T13:31:26;1.10;;;0.90;;
30287;SDS011;17103;48.316;11.558;2023-05-07T13:33:51;1.10;;;1.00;;
30287;SDS011;17103;48.316;11.558;2023-05-07T13:36:19;0.75;;;0.73;;
30287;SDS011;17103;48.316;11.558;2023-05-07T13:38:45;1.10;;;0.60;;
30287;SDS011;17103;48.316;11.558;2023-05-07T13:41:11;1.20;;;0.70;;
30287;SDS011;17103;48.316;11.558;2023-05-07T13:43:38;1.55;;;0.70;;
30287;SDS011;17103;48.316;11.558;2023-05-07T13:46:03;1.58;;;0.93;;
30287;SDS011;17103;48.316;11.558;2023-05-07T13:48:29;6.57;;;0.90;;
30287;SDS011;17103;48.316;11.558;2023-05-07T13:50:55;0.93;;;0.68;;
30287;SDS011;17103;48.316;11.558;2023-05-07T13:53:21;1.83;;;0.68;;
30287;SDS011;17103;48.316;11.558;2023-05-07T13:55:46;1.83;;;0.70;;
30287;SDS011;17103;48.316;11.558;2023-05-07T13:58:12;0.88;;;0.70;;
30287;SDS011;17103;48.316;11.558;2023-05-07T14:00:38;1.92;;;1.10;;
30287;SDS011;17103;48.316;11.558;2023-05-07T14:03:04;2.85;;;0.55;;
30287;SDS011;17103;48.316;11.558;2023-05-07T14:05:30;1.10;;;0.82;;
30287;SDS011;17103;48.316;11.558;2023-05-07T14:07:59;1.50;;;0.63;;
30287;SDS011;17103;48.316;11.558;2023-05-07T14:10:25;0.93;;;0.70;;
30287;SDS011;17103;48.316;11.558;2023-05-07T14:12:51;1.08;;;0.80;;
30287;SDS011;17103;48.316;11.558;2023-05-07T14:15:17;1.05;;;0.90;;
30287;SDS011;17103;48.316;11.558;2023-05-07T14:17:43;1.63;;;0.50;;
30287;SDS011;17103;48.316;11.558;2023-05-07T14:20:11;3.13;;;1.00;;
30287;SDS011;17103;48.316;11.558;2023-05-07T14:22:37;0.70;;;0.65;;
30287;SDS011;17103;48.316;11.558;2023-05-07T14:25:03;0.95;;;0.77;;
30287;SDS011;17103;48.316;11.558;2023-05-07T14:27:29;1.20;;;0.70;;
30287;SDS011;17103;48.316;11.558;2023-05-07T14:29:54;1.65;;;0.70;;
30287;SDS011;17103;48.316;11.558;2023-05-07T14:32:20;1.88;;;0.95;;
30287;SDS011;17103;48.316;11.558;2023-05-07T14:34:46;1.05;;;0.63;;
30287;SDS011;17103;48.316;11.558;2023-05-07T14:37:12;2.03;;;0.80;;
30287;SDS011;17103;48.316;11.558;2023-05-07T14:39:38;1.58;;;0.68;;
30287;SDS011;17103;48.316;11.558;2023-05-07T14:42:04;2.67;;;0.77;;
30287;SDS011;17103;48.316;11.558;2023-05-07T14:44:30;1.77;;;0.98;;
30287;SDS011;17103;48.316;11.558;2023-05-07T14:46:56;0.88;;;0.60;;
30287;SDS011;17103;48.316;11.558;2023-05-07T14:49:22;0.85;;;0.63;;
30287;SDS011;17103;48.316;11.558;2023-05-07T14:51:48;0.90;;;0.70;;